Time;durP1;ratioP1;P1;durP2;ratioP2;P2;SDS_P1;SDS_P2;PMS_P1;PMS_P2;Temp;Humidity;BMP_temperature;BMP_pressure;BME280_temperature;BME280_humidity;BME280_pressure;Samples;Min_cycle;Max_cycle;Signal;HPM_P1;HPM_P2
2022/03/12 00:00:51;;;;;;;;;;;4.50;93.10;;;;;;5113726;28;19924;-59
2022/03/12 00:03:17;;;;;;;;;;;4.50;93.00;;;;;;5112301;28;19930;-59
2022/03/12 00:05:52;;;;;;;;;;;4.50;93.20;;;;;;5113494;28;19923;-59
2022/03/12 00:08:21;;;;;;;;;;;4.50;93.50;;;;;;5113424;28;19924;-59
2022/03/12 00:10:50;;;;;;;;;;;4.40;93.20;;;;;;5112310;28;19982;-60
2022/03/12 00:13:19;;;;;;;;;;;4.40;93.30;;;;;;5095525;28;19935;-59
2022/03/12 00:15:47;;;;;;;;;;;4.40;93.80;;;;;;5095826;28;19924;-59
2022/03/12 00:18:18;;;;;;;;;;;4.40;93.40;;;;;;5094414;28;19938;-59
2022/03/12 00:20:47;;;;;;;;;;;4.40;93.70;;;;;;5080899;28;19982;-59
2022/03/12 00:23:15;;;;;;;;;;;4.40;93.70;;;;;;5105268;28;19974;-59
2022/03/12 00:25:43;;;;;;;;;;;4.30;93.80;;;;;;5073805;28;19970;-59
2022/03/12 00:28:09;;;;;;;;;;;4.40;93.40;;;;;;5058491;28;20402;-59
2022/03/12 00:30:35;;;;;;;;;;;4.30;94.00;;;;;;5099799;28;19966;-59
2022/03/12 00:33:01;;;;;;;;;;;4.30;93.90;;;;;;5098365;28;19924;-59
2022/03/12 00:35:27;;;;;;;;;;;4.30;94.10;;;;;;5098879;28;20381;-59
2022/03/12 00:37:53;;;;;;;;;;;4.30;94.00;;;;;;5098414;28;19980;-59
2022/03/12 00:40:20;;;;;;;;;;;4.30;94.30;;;;;;5116074;28;19949;-59
2022/03/12 00:42:45;;;;;;;;;;;4.30;94.30;;;;;;5098744;28;20335;-59
2022/03/12 00:45:12;;;;;;;;;;;4.30;94.60;;;;;;5098103;28;20003;-59
2022/03/12 00:47:37;;;;;;;;;;;4.20;94.30;;;;;;5109242;28;19926;-59
2022/03/12 00:50:03;;;;;;;;;;;4.20;94.60;;;;;;5096028;28;19924;-59
2022/03/12 00:52:29;;;;;;;;;;;4.20;94.70;;;;;;5095831;28;19931;-59
2022/03/12 00:54:56;;;;;;;;;;;4.20;94.30;;;;;;5077762;28;20019;-59
2022/03/12 00:57:21;;;;;;;;;;;4.20;94.20;;;;;;5110144;28;19974;-59
2022/03/12 00:59:47;;;;;;;;;;;4.20;94.30;;;;;;5116073;28;19959;-59
2022/03/12 01:02:15;;;;;;;;;;;4.20;94.60;;;;;;5116153;28;19969;-59
2022/03/12 01:04:41;;;;;;;;;;;4.20;94.40;;;;;;5115967;28;19969;-59
2022/03/12 01:07:06;;;;;;;;;;;4.10;94.40;;;;;;5097515;28;19928;-59
2022/03/12 01:09:33;;;;;;;;;;;4.10;94.60;;;;;;5116174;28;19928;-59
2022/03/12 01:11:58;;;;;;;;;;;4.10;94.40;;;;;;5099567;28;19931;-59
2022/03/12 01:14:25;;;;;;;;;;;4.10;94.50;;;;;;5097017;28;19995;-59
2022/03/12 01:16:50;;;;;;;;;;;4.10;93.80;;;;;;5116138;28;20409;-59
2022/03/12 01:19:16;;;;;;;;;;;4.10;94.30;;;;;;5116175;28;20274;-59
2022/03/12 01:21:42;;;;;;;;;;;4.20;94.60;;;;;;5115476;28;19942;-59
2022/03/12 01:24:08;;;;;;;;;;;4.10;94.40;;;;;;5110279;28;19931;-59
2022/03/12 01:26:35;;;;;;;;;;;4.10;94.50;;;;;;5082788;28;19959;-59
2022/03/12 01:29:02;;;;;;;;;;;4.10;94.60;;;;;;5074893;28;19931;-59
2022/03/12 01:31:27;;;;;;;;;;;4.10;94.50;;;;;;5062560;28;19930;-59
2022/03/12 01:33:53;;;;;;;;;;;4.10;94.40;;;;;;5115248;28;19923;-59
2022/03/12 01:36:19;;;;;;;;;;;4.10;94.50;;;;;;5116180;28;19927;-59
2022/03/12 01:38:52;;;;;;;;;;;4.10;94.40;;;;;;5115971;28;19924;-59
2022/03/12 01:41:22;;;;;;;;;;;4.10;94.70;;;;;;5114882;28;20011;-59
2022/03/12 01:43:49;;;;;;;;;;;4.10;94.50;;;;;;5097658;28;19920;-59
2022/03/12 01:46:14;;;;;;;;;;;4.10;94.50;;;;;;5097431;28;19924;-59
2022/03/12 01:48:46;;;;;;;;;;;4.00;94.50;;;;;;5115100;28;19926;-59
2022/03/12 01:51:12;;;;;;;;;;;4.10;94.10;;;;;;5074707;28;19931;-59
2022/03/12 01:53:37;;;;;;;;;;;4.10;94.10;;;;;;5074621;28;20290;-59
2022/03/12 01:56:03;;;;;;;;;;;4.10;94.10;;;;;;5074452;28;19925;-59
2022/03/12 01:58:29;;;;;;;;;;;4.10;94.50;;;;;;5089016;28;20303;-59
2022/03/12 02:00:57;;;;;;;;;;;4.10;94.30;;;;;;5097355;28;19924;-58
2022/03/12 02:03:26;;;;;;;;;;;4.10;94.30;;;;;;5096450;28;19924;-59
2022/03/12 02:05:52;;;;;;;;;;;4.10;94.40;;;;;;5097561;28;19924;-59
2022/03/12 02:08:18;;;;;;;;;;;4.10;94.10;;;;;;5099176;28;19928;-59
2022/03/12 02:10:45;;;;;;;;;;;4.10;94.40;;;;;;5094191;28;20003;-59
2022/03/12 02:13:10;;;;;;;;;;;4.10;94.60;;;;;;5094743;28;20383;-59
2022/03/12 02:15:36;;;;;;;;;;;4.10;94.20;;;;;;5094029;28;19928;-59
2022/03/12 02:18:02;;;;;;;;;;;4.10;94.00;;;;;;5093821;28;19924;-59
2022/03/12 02:20:28;;;;;;;;;;;4.10;94.00;;;;;;5095081;28;19930;-59
2022/03/12 02:22:54;;;;;;;;;;;4.10;93.80;;;;;;5076588;28;20549;-59
2022/03/12 02:25:27;;;;;;;;;;;4.10;93.70;;;;;;5089954;28;19932;-59
2022/03/12 02:27:54;;;;;;;;;;;4.10;93.60;;;;;;5074654;28;19924;-59
2022/03/12 02:30:20;;;;;;;;;;;4.10;93.20;;;;;;5073261;28;19940;-59
2022/03/12 02:32:46;;;;;;;;;;;4.10;92.90;;;;;;5073823;28;19928;-59
2022/03/12 02:35:13;;;;;;;;;;;4.10;92.80;;;;;;5110096;28;20389;-59
2022/03/12 02:37:48;;;;;;;;;;;4.20;93.40;;;;;;5114378;28;20391;-59
2022/03/12 02:40:13;;;;;;;;;;;4.10;92.80;;;;;;5096308;28;19946;-59
2022/03/12 02:42:39;;;;;;;;;;;4.10;93.00;;;;;;5114105;28;20440;-59
2022/03/12 02:45:08;;;;;;;;;;;4.10;93.30;;;;;;5114025;28;20006;-59
2022/03/12 02:47:35;;;;;;;;;;;4.10;93.10;;;;;;5114374;28;19923;-59
2022/03/12 02:50:04;;;;;;;;;;;4.20;93.40;;;;;;5086905;28;19931;-59
2022/03/12 02:52:31;;;;;;;;;;;4.10;93.00;;;;;;5089630;28;19930;-59
2022/03/12 02:54:58;;;;;;;;;;;4.10;93.10;;;;;;5114020;28;19928;-59
2022/03/12 02:57:26;;;;;;;;;;;4.40;93.10;;;;;;5114574;28;19923;-59
2022/03/12 02:59:54;;;;;;;;;;;4.10;93.10;;;;;;5094871;28;20065;-59
2022/03/12 03:02:38;;;;;;;;;;;4.10;93.00;;;;;;5114118;28;19930;-59
2022/03/12 03:05:04;;;;;;;;;;;4.10;92.80;;;;;;5114572;28;19931;-59
2022/03/12 03:07:35;;;;;;;;;;;4.10;92.50;;;;;;5113209;28;20281;-59
2022/03/12 03:10:01;;;;;;;;;;;3.90;92.40;;;;;;5099738;28;20031;-59
2022/03/12 03:12:27;;;;;;;;;;;4.10;92.50;;;;;;5074805;28;20374;-59
2022/03/12 03:14:52;;;;;;;;;;;4.10;92.30;;;;;;5093942;28;19931;-59
2022/03/12 03:17:18;;;;;;;;;;;4.10;92.20;;;;;;5092865;28;19931;-59
2022/03/12 03:19:45;;;;;;;;;;;4.00;92.30;;;;;;5092958;28;19942;-59
2022/03/12 03:22:11;;;;;;;;;;;4.10;92.70;;;;;;5093871;28;20313;-59
2022/03/12 03:24:37;;;;;;;;;;;4.00;92.20;;;;;;5083810;28;20362;-59
2022/03/12 03:27:03;;;;;;;;;;;4.00;92.40;;;;;;5088440;28;19924;-59
2022/03/12 03:29:29;;;;;;;;;;;4.00;92.40;;;;;;5093287;28;19924;-59
2022/03/12 03:31:55;;;;;;;;;;;4.00;91.80;;;;;;5093073;28;19924;-59
2022/03/12 03:34:22;;;;;;;;;;;4.00;91.70;;;;;;5092902;28;19947;-59
2022/03/12 03:36:48;;;;;;;;;;;4.00;92.00;;;;;;5090213;28;20034;-59
2022/03/12 03:39:14;;;;;;;;;;;4.00;92.00;;;;;;5113507;28;20007;-59
2022/03/12 03:41:40;;;;;;;;;;;4.00;92.20;;;;;;5095129;28;20010;-58
2022/03/12 03:44:06;;;;;;;;;;;4.00;92.40;;;;;;5110721;28;19924;-59
2022/03/12 03:46:33;;;;;;;;;;;4.00;92.10;;;;;;5074683;28;19932;-59
2022/03/12 03:48:58;;;;;;;;;;;4.00;92.50;;;;;;5092085;28;19924;-59
2022/03/12 03:51:24;;;;;;;;;;;4.00;92.50;;;;;;5093047;28;19924;-59
2022/03/12 03:53:50;;;;;;;;;;;3.90;92.60;;;;;;5102234;28;19980;-59
2022/03/12 03:56:17;;;;;;;;;;;3.90;92.00;;;;;;5112927;28;19924;-59
2022/03/12 03:58:43;;;;;;;;;;;3.90;92.40;;;;;;5095343;28;20007;-59
2022/03/12 04:01:12;;;;;;;;;;;3.90;92.40;;;;;;5113010;28;20049;-59
2022/03/12 04:03:44;;;;;;;;;;;3.90;93.10;;;;;;5112209;28;19920;-59
2022/03/12 04:06:10;;;;;;;;;;;3.90;93.20;;;;;;5113425;28;20014;-59
2022/03/12 04:08:35;;;;;;;;;;;3.90;93.10;;;;;;5112476;28;20024;-59
2022/03/12 04:11:04;;;;;;;;;;;3.80;92.90;;;;;;5104197;28;19970;-59
2022/03/12 04:13:30;;;;;;;;;;;3.80;93.30;;;;;;5091868;28;20288;-59
2022/03/12 04:15:58;;;;;;;;;;;3.80;93.60;;;;;;5074060;28;19928;-59
2022/03/12 04:18:25;;;;;;;;;;;3.80;93.50;;;;;;5091831;28;20017;-59
2022/03/12 04:20:51;;;;;;;;;;;3.80;93.90;;;;;;5106265;28;20280;-59
2022/03/12 04:23:19;;;;;;;;;;;3.70;94.20;;;;;;5112369;28;19927;-59
2022/03/12 04:25:45;;;;;;;;;;;3.60;94.50;;;;;;5088609;28;19925;-59
2022/03/12 04:28:11;;;;;;;;;;;3.60;94.40;;;;;;5073963;28;19931;-59
2022/03/12 04:30:38;;;;;;;;;;;3.60;95.20;;;;;;5091714;28;19954;-59
2022/03/12 04:33:04;;;;;;;;;;;3.60;95.20;;;;;;5091598;28;19931;-59
2022/03/12 04:35:32;;;;;;;;;;;3.60;95.00;;;;;;5093132;28;20014;-59
2022/03/12 04:37:58;;;;;;;;;;;3.60;95.20;;;;;;5100225;28;19924;-59
2022/03/12 04:40:25;;;;;;;;;;;3.50;95.20;;;;;;5095228;28;19924;-59
2022/03/12 04:42:51;;;;;;;;;;;3.50;95.30;;;;;;5113476;28;19931;-59
2022/03/12 04:45:19;;;;;;;;;;;3.50;95.20;;;;;;5093570;28;19928;-59
2022/03/12 04:47:46;;;;;;;;;;;3.50;94.90;;;;;;5112680;28;19967;-59
2022/03/12 04:50:12;;;;;;;;;;;3.50;94.60;;;;;;5102404;28;20282;-59
2022/03/12 04:52:41;;;;;;;;;;;3.50;94.60;;;;;;5091632;28;19931;-59
2022/03/12 04:55:09;;;;;;;;;;;3.50;94.20;;;;;;5096684;28;19982;-59
2022/03/12 04:57:34;;;;;;;;;;;3.50;94.20;;;;;;5114848;28;19924;-59
2022/03/12 05:00:02;;;;;;;;;;;3.50;94.20;;;;;;5097648;28;20392;-59
2022/03/12 05:02:29;;;;;;;;;;;3.50;93.90;;;;;;5098442;28;20386;-59
2022/03/12 05:04:55;;;;;;;;;;;3.40;93.90;;;;;;5115521;28;19939;-58
2022/03/12 05:07:21;;;;;;;;;;;3.40;94.30;;;;;;5116291;28;20010;-59
2022/03/12 05:09:46;;;;;;;;;;;3.30;94.50;;;;;;5116567;28;20446;-59
2022/03/12 05:12:12;;;;;;;;;;;3.30;94.20;;;;;;5096990;28;19980;-59
2022/03/12 05:14:38;;;;;;;;;;;3.30;94.50;;;;;;5094994;28;19924;-59
2022/03/12 05:17:08;;;;;;;;;;;3.30;93.90;;;;;;5095871;28;19970;-59
2022/03/12 05:19:35;;;;;;;;;;;3.20;94.70;;;;;;5095346;28;19924;-59
2022/03/12 05:22:07;;;;;;;;;;;3.20;94.70;;;;;;5102813;28;19978;-59
2022/03/12 05:24:33;;;;;;;;;;;3.20;94.80;;;;;;5089434;28;20014;-59
2022/03/12 05:26:59;;;;;;;;;;;3.10;94.90;;;;;;5060363;28;20003;-59
2022/03/12 05:29:25;;;;;;;;;;;3.10;95.20;;;;;;5074813;28;20015;-59
2022/03/12 05:31:52;;;;;;;;;;;3.00;95.20;;;;;;5107222;28;19928;-59
2022/03/12 05:34:21;;;;;;;;;;;2.90;95.40;;;;;;5115469;28;20301;-59
2022/03/12 05:36:47;;;;;;;;;;;2.90;95.40;;;;;;5115406;28;19928;-59
2022/03/12 05:39:12;;;;;;;;;;;2.90;95.30;;;;;;5115621;28;20366;-59
2022/03/12 05:41:42;;;;;;;;;;;2.80;95.60;;;;;;5115119;28;19924;-59
2022/03/12 05:44:08;;;;;;;;;;;2.70;96.10;;;;;;5115322;28;19935;-59
2022/03/12 05:46:35;;;;;;;;;;;2.60;97.10;;;;;;5116098;28;19978;-59
2022/03/12 05:49:01;;;;;;;;;;;2.50;96.70;;;;;;5113769;28;19955;-59
2022/03/12 05:51:29;;;;;;;;;;;2.40;97.00;;;;;;5095412;28;19939;-59
2022/03/12 05:53:54;;;;;;;;;;;2.30;97.20;;;;;;5077302;28;19978;-59
2022/03/12 05:56:20;;;;;;;;;;;2.30;97.90;;;;;;5076457;28;19982;-59
2022/03/12 05:58:45;;;;;;;;;;;2.30;97.80;;;;;;5113759;28;19942;-59
2022/03/12 06:01:11;;;;;;;;;;;2.30;98.10;;;;;;5115002;28;20408;-59
2022/03/12 06:03:37;;;;;;;;;;;2.30;98.40;;;;;;5115650;28;19978;-59
2022/03/12 06:06:03;;;;;;;;;;;2.30;98.00;;;;;;5114577;28;19924;-58
2022/03/12 06:08:29;;;;;;;;;;;2.30;98.00;;;;;;5113559;28;19924;-59
2022/03/12 06:10:55;;;;;;;;;;;2.30;98.30;;;;;;5107515;28;19924;-59
2022/03/12 06:13:23;;;;;;;;;;;2.20;98.20;;;;;;5094299;28;20013;-59
2022/03/12 06:15:52;;;;;;;;;;;2.20;98.30;;;;;;5107744;28;19924;-59
2022/03/12 06:18:18;;;;;;;;;;;2.20;98.90;;;;;;5115276;28;19963;-59
2022/03/12 06:20:44;;;;;;;;;;;2.20;98.80;;;;;;5115012;28;19924;-59
2022/03/12 06:23:09;;;;;;;;;;;2.20;98.80;;;;;;5112690;28;19943;-59
2022/03/12 06:25:35;;;;;;;;;;;2.20;99.40;;;;;;5089556;28;20387;-59
2022/03/12 06:28:02;;;;;;;;;;;2.20;99.20;;;;;;5055680;28;19992;-59
2022/03/12 06:30:28;;;;;;;;;;;2.20;99.10;;;;;;5073686;28;19986;-59
2022/03/12 06:32:55;;;;;;;;;;;2.20;99.00;;;;;;5091062;28;20382;-59
2022/03/12 06:35:21;;;;;;;;;;;2.30;99.30;;;;;;5114544;28;19977;-59
2022/03/12 06:37:46;;;;;;;;;;;2.40;99.20;;;;;;5114200;28;19924;-59
2022/03/12 06:40:15;;;;;;;;;;;2.40;99.30;;;;;;5114981;28;19923;-59
2022/03/12 06:42:41;;;;;;;;;;;2.60;99.10;;;;;;5078997;28;19977;-59
2022/03/12 06:45:08;;;;;;;;;;;2.70;98.90;;;;;;5093573;28;19924;-59
2022/03/12 06:47:38;;;;;;;;;;;2.90;98.90;;;;;;5094589;28;19982;-59
2022/03/12 06:50:08;;;;;;;;;;;3.00;98.90;;;;;;5097241;28;20281;-58
2022/03/12 06:52:34;;;;;;;;;;;3.00;98.60;;;;;;5095362;28;19924;-59
2022/03/12 06:55:00;;;;;;;;;;;3.10;98.60;;;;;;5114855;28;19989;-59
2022/03/12 06:57:25;;;;;;;;;;;3.10;98.70;;;;;;5113475;28;20425;-59
2022/03/12 06:59:51;;;;;;;;;;;3.20;98.40;;;;;;5101791;28;20007;-58
2022/03/12 07:02:17;;;;;;;;;;;3.20;98.10;;;;;;5094123;28;19924;-59
2022/03/12 07:04:42;;;;;;;;;;;3.20;98.10;;;;;;5074405;28;20787;-59
2022/03/12 07:07:08;;;;;;;;;;;3.20;98.30;;;;;;5093916;28;19928;-59
2022/03/12 07:09:34;;;;;;;;;;;3.30;98.20;;;;;;5093305;28;19928;-59
2022/03/12 07:12:00;;;;;;;;;;;3.30;98.20;;;;;;5092312;28;19936;-59
2022/03/12 07:14:28;;;;;;;;;;;3.30;98.10;;;;;;5093908;28;19924;-59
2022/03/12 07:16:54;;;;;;;;;;;3.30;98.30;;;;;;5087183;28;19946;-59
2022/03/12 07:19:20;;;;;;;;;;;3.30;98.50;;;;;;5072272;28;19924;-59
2022/03/12 07:21:45;;;;;;;;;;;3.40;98.50;;;;;;5073323;28;19982;-59
2022/03/12 07:24:12;;;;;;;;;;;3.40;98.60;;;;;;5073436;28;19925;-59
2022/03/12 07:26:39;;;;;;;;;;;3.50;98.20;;;;;;5086400;28;20324;-59
2022/03/12 07:29:04;;;;;;;;;;;3.60;98.10;;;;;;5093540;28;19977;-59
2022/03/12 07:31:30;;;;;;;;;;;3.60;98.10;;;;;;5093545;28;20015;-59
2022/03/12 07:33:57;;;;;;;;;;;3.70;97.80;;;;;;5093250;28;19924;-59
2022/03/12 07:36:22;;;;;;;;;;;3.80;97.60;;;;;;5095507;28;19947;-59
2022/03/12 07:38:48;;;;;;;;;;;3.90;97.40;;;;;;5113992;28;19935;-59
2022/03/12 07:41:14;;;;;;;;;;;4.00;97.50;;;;;;5112899;28;19931;-59
2022/03/12 07:43:40;;;;;;;;;;;4.10;97.30;;;;;;5112609;28;20397;-59
2022/03/12 07:46:06;;;;;;;;;;;4.40;98.10;;;;;;5113884;28;19935;-59
2022/03/12 07:48:32;;;;;;;;;;;4.50;99.90;;;;;;5112969;28;20326;-59
2022/03/12 07:51:00;;;;;;;;;;;4.70;99.70;;;;;;5095809;28;20384;-59
2022/03/12 07:53:26;;;;;;;;;;;5.10;99.40;;;;;;5092911;28;19975;-59
2022/03/12 07:55:51;;;;;;;;;;;5.50;98.90;;;;;;5092703;28;19978;-59
2022/03/12 07:58:18;;;;;;;;;;;5.00;98.20;;;;;;5074614;28;19967;-59
2022/03/12 08:00:44;;;;;;;;;;;5.60;97.00;;;;;;5077382;28;19923;-59
2022/03/12 08:03:09;;;;;;;;;;;5.20;97.40;;;;;;5113513;28;19923;-59
2022/03/12 08:05:35;;;;;;;;;;;5.10;97.30;;;;;;5113152;28;19919;-59
2022/03/12 08:08:02;;;;;;;;;;;5.30;96.90;;;;;;5112599;28;19924;-59
2022/03/12 08:10:28;;;;;;;;;;;5.80;97.50;;;;;;5102118;28;19973;-59
2022/03/12 08:12:54;;;;;;;;;;;5.30;94.00;;;;;;5074378;28;19928;-59
2022/03/12 08:15:20;;;;;;;;;;;5.60;93.50;;;;;;5092355;28;19932;-59
2022/03/12 08:17:46;;;;;;;;;;;5.80;93.70;;;;;;5092916;28;19951;-60
2022/03/12 08:20:12;;;;;;;;;;;6.10;91.90;;;;;;5110430;28;19923;-59
2022/03/12 08:22:39;;;;;;;;;;;6.40;90.30;;;;;;5112861;28;20006;-59
2022/03/12 08:25:05;;;;;;;;;;;6.60;86.90;;;;;;5099576;28;20377;-59
2022/03/12 08:27:32;;;;;;;;;;;6.80;86.60;;;;;;5083509;28;19924;-60
2022/03/12 08:29:58;;;;;;;;;;;7.10;85.70;;;;;;5112465;28;19938;-59
2022/03/12 08:32:24;;;;;;;;;;;7.30;84.80;;;;;;5114605;28;19924;-59
2022/03/12 08:34:50;;;;;;;;;;;7.80;82.10;;;;;;5116827;28;20292;-59
2022/03/12 08:37:16;;;;;;;;;;;7.70;78.40;;;;;;5105796;28;19972;-60
2022/03/12 08:39:41;;;;;;;;;;;7.90;77.20;;;;;;5082155;28;19979;-59
2022/03/12 08:42:08;;;;;;;;;;;8.00;76.80;;;;;;5104339;28;19923;-59
2022/03/12 08:44:34;;;;;;;;;;;8.00;76.80;;;;;;5081224;28;19931;-59
2022/03/12 08:46:59;;;;;;;;;;;8.10;77.30;;;;;;5083124;28;19939;-60
2022/03/12 08:49:25;;;;;;;;;;;8.10;71.90;;;;;;5101839;28;20275;-60
2022/03/12 08:51:51;;;;;;;;;;;8.20;73.40;;;;;;5106979;28;19924;-59
2022/03/12 08:54:16;;;;;;;;;;;8.20;74.00;;;;;;5086433;28;19931;-60
2022/03/12 08:56:43;;;;;;;;;;;8.20;74.10;;;;;;5103556;28;19932;-60
2022/03/12 08:59:09;;;;;;;;;;;8.30;74.50;;;;;;5099766;28;19930;-60
2022/03/12 09:01:37;;;;;;;;;;;8.90;90.70;;;;;;5096355;28;19931;-60
2022/03/12 09:04:03;;;;;;;;;;;8.90;77.20;;;;;;5109647;28;19946;-60
2022/03/12 09:06:31;;;;;;;;;;;8.50;75.30;;;;;;5116859;28;20392;-60
2022/03/12 09:08:58;;;;;;;;;;;8.60;72.80;;;;;;5116744;28;19927;-60
2022/03/12 09:11:24;;;;;;;;;;;8.80;72.70;;;;;;5095069;28;19928;-60
2022/03/12 09:13:50;;;;;;;;;;;9.00;72.40;;;;;;5111910;28;19924;-60
2022/03/12 09:16:16;;;;;;;;;;;9.20;71.60;;;;;;5081304;28;19935;-60
2022/03/12 09:18:44;;;;;;;;;;;9.30;69.80;;;;;;5103146;28;19949;-60
2022/03/12 09:21:10;;;;;;;;;;;9.50;72.50;;;;;;5086922;28;19924;-60
2022/03/12 09:23:35;;;;;;;;;;;9.80;72.10;;;;;;5115688;28;19963;-60
2022/03/12 09:26:01;;;;;;;;;;;10.00;72.40;;;;;;5086248;28;19928;-60
2022/03/12 09:28:27;;;;;;;;;;;10.20;68.60;;;;;;5075608;28;19924;-60
2022/03/12 09:30:52;;;;;;;;;;;10.30;70.30;;;;;;5109572;28;19931;-60
2022/03/12 09:33:20;;;;;;;;;;;10.50;75.50;;;;;;5114797;28;19928;-60
2022/03/12 09:35:46;;;;;;;;;;;;;;;;;;5116178;28;19928;-60
2022/03/12 09:38:14;;;;;;;;;;;10.60;68.80;;;;;;5096342;28;20035;-60
2022/03/12 09:40:40;;;;;;;;;;;10.70;68.20;;;;;;5101587;28;19940;-60
2022/03/12 09:43:06;;;;;;;;;;;10.50;68.10;;;;;;5101995;28;20099;-60
2022/03/12 09:45:33;;;;;;;;;;;10.60;70.90;;;;;;5104015;28;19923;-60
2022/03/12 09:47:59;;;;;;;;;;;10.70;71.50;;;;;;5099885;28;19928;-60
2022/03/12 09:50:25;;;;;;;;;;;11.10;70.40;;;;;;5102304;28;20014;-60
2022/03/12 09:52:50;;;;;;;;;;;11.30;69.50;;;;;;5104043;28;19931;-60
2022/03/12 09:55:16;;;;;;;;;;;11.30;67.60;;;;;;5097966;28;19928;-60
2022/03/12 09:57:43;;;;;;;;;;;11.40;68.30;;;;;;5087924;28;19925;-60
2022/03/12 10:00:09;;;;;;;;;;;11.50;68.30;;;;;;5074836;28;19930;-61
2022/03/12 10:02:38;;;;;;;;;;;11.60;86.50;;;;;;5073970;28;19951;-60
2022/03/12 10:05:04;;;;;;;;;;;12.40;91.40;;;;;;5081904;28;19924;-61
2022/03/12 10:07:30;;;;;;;;;;;11.60;70.20;;;;;;5076331;28;19924;-60
2022/03/12 10:09:56;;;;;;;;;;;11.40;70.00;;;;;;5094661;28;19928;-61
2022/03/12 10:12:21;;;;;;;;;;;11.40;71.60;;;;;;5094728;28;19928;-60
2022/03/12 10:14:48;;;;;;;;;;;11.70;73.90;;;;;;5108687;28;20413;-60
2022/03/12 10:17:17;;;;;;;;;;;11.50;70.60;;;;;;5098439;28;21421;-60
2022/03/12 10:19:44;;;;;;;;;;;11.60;73.40;;;;;;5095105;28;19924;-61
2022/03/12 10:22:10;;;;;;;;;;;11.80;74.20;;;;;;5087312;28;20019;-61
2022/03/12 10:24:36;;;;;;;;;;;12.30;78.30;;;;;;5101366;28;20356;-61
2022/03/12 10:27:02;;;;;;;;;;;;;;;;;;5081036;28;19963;-61
2022/03/12 10:29:28;;;;;;;;;;;13.10;90.10;;;;;;5079910;28;19924;-61
2022/03/12 10:31:56;;;;;;;;;;;12.90;73.00;;;;;;5100613;28;19932;-60
2022/03/12 10:34:22;;;;;;;;;;;13.00;76.90;;;;;;5094625;28;19924;-60
2022/03/12 10:36:49;;;;;;;;;;;12.90;75.00;;;;;;5098842;28;19924;-60
2022/03/12 10:39:15;;;;;;;;;;;12.70;76.80;;;;;;5066875;28;19998;-60
2022/03/12 10:41:41;;;;;;;;;;;12.80;76.70;;;;;;5108825;28;19928;-61
2022/03/12 10:44:07;;;;;;;;;;;13.00;80.80;;;;;;5112841;28;20446;-61
2022/03/12 10:46:34;;;;;;;;;;;13.10;82.00;;;;;;5095861;28;19946;-61
2022/03/12 10:49:02;;;;;;;;;;;13.10;82.10;;;;;;5108577;28;19924;-60
2022/03/12 10:51:30;;;;;;;;;;;13.20;82.80;;;;;;5093336;28;20289;-60
2022/03/12 10:54:05;;;;;;;;;;;13.00;86.30;;;;;;5074982;28;20374;-61
2022/03/12 10:56:38;;;;;;;;;;;13.20;86.90;;;;;;5074861;28;19924;-61
2022/03/12 10:59:09;;;;;;;;;;;13.30;87.60;;;;;;5090023;28;19958;-60
2022/03/12 11:01:35;;;;;;;;;;;13.30;90.20;;;;;;5111563;28;19931;-60
2022/03/12 11:04:02;;;;;;;;;;;13.50;91.40;;;;;;5113654;28;19927;-60
2022/03/12 11:06:27;;;;;;;;;;;13.70;89.20;;;;;;5110315;28;19980;-61
2022/03/12 11:08:54;;;;;;;;;;;13.60;88.70;;;;;;5093087;28;20022;-61
2022/03/12 11:11:20;;;;;;;;;;;13.50;88.90;;;;;;5090258;28;19931;-61
2022/03/12 11:13:47;;;;;;;;;;;13.30;92.00;;;;;;5093941;28;19924;-61
2022/03/12 11:16:22;;;;;;;;;;;13.30;91.90;;;;;;5103108;28;19924;-61
2022/03/12 11:18:54;;;;;;;;;;;13.50;91.20;;;;;;5084142;28;19924;-61
2022/03/12 11:21:26;;;;;;;;;;;13.50;92.20;;;;;;5110634;28;19927;-61
2022/03/12 11:23:54;;;;;;;;;;;13.30;91.70;;;;;;5110145;28;20019;-61
2022/03/12 11:26:20;;;;;;;;;;;13.50;92.30;;;;;;5081670;28;20457;-61
2022/03/12 11:28:59;;;;;;;;;;;13.50;92.70;;;;;;5078173;28;19932;-61
2022/03/12 11:31:39;;;;;;;;;;;13.80;90.10;;;;;;5071213;28;19978;-61
2022/03/12 11:34:12;;;;;;;;;;;14.20;90.60;;;;;;5096712;28;19924;-61
2022/03/12 11:36:41;;;;;;;;;;;14.60;84.70;;;;;;5095800;28;19930;-60
2022/03/12 11:39:07;;;;;;;;;;;14.90;85.40;;;;;;5112838;28;19955;-61
2022/03/12 11:41:36;;;;;;;;;;;15.10;85.00;;;;;;5113211;28;20424;-61
2022/03/12 11:44:07;;;;;;;;;;;15.00;88.70;;;;;;5113144;28;19931;-61
2022/03/12 11:46:32;;;;;;;;;;;14.70;92.00;;;;;;5099621;28;20023;-61
2022/03/12 11:48:59;;;;;;;;;;;14.70;91.70;;;;;;5103268;28;20010;-61
2022/03/12 11:51:25;;;;;;;;;;;14.70;91.20;;;;;;5102039;28;20337;-61
2022/03/12 11:53:53;;;;;;;;;;;14.60;92.90;;;;;;5094152;28;20010;-61
2022/03/12 11:56:19;;;;;;;;;;;14.40;93.80;;;;;;5113903;28;19930;-60
2022/03/12 11:58:45;;;;;;;;;;;14.20;92.90;;;;;;5113631;28;19923;-61
2022/03/12 12:01:19;;;;;;;;;;;14.00;94.20;;;;;;5094587;28;20316;-61
2022/03/12 12:03:47;;;;;;;;;;;14.10;94.80;;;;;;5092933;28;20370;-61
2022/03/12 12:06:14;;;;;;;;;;;14.30;95.50;;;;;;5093202;28;20428;-61
2022/03/12 12:08:40;;;;;;;;;;;14.50;94.70;;;;;;5100565;28;20289;-61
2022/03/12 12:11:07;;;;;;;;;;;14.50;93.40;;;;;;5108312;28;19924;-61
2022/03/12 12:13:33;;;;;;;;;;;14.60;93.50;;;;;;5097409;28;19924;-61
2022/03/12 12:15:59;;;;;;;;;;;14.80;93.90;;;;;;5096237;28;19947;-61
2022/03/12 12:18:25;;;;;;;;;;;14.80;93.30;;;;;;5109392;28;19959;-61
2022/03/12 12:20:51;;;;;;;;;;;14.90;93.20;;;;;;5117765;28;20273;-61
2022/03/12 12:23:17;;;;;;;;;;;15.00;92.80;;;;;;5116597;28;19978;-61
2022/03/12 12:25:43;;;;;;;;;;;15.00;91.70;;;;;;5092915;28;19925;-61
2022/03/12 12:28:13;;;;;;;;;;;14.70;93.60;;;;;;5116365;28;20297;-62
2022/03/12 12:30:43;;;;;;;;;;;14.70;92.20;;;;;;5110026;28;19924;-61
2022/03/12 12:33:13;;;;;;;;;;;14.80;92.60;;;;;;5105542;28;19931;-61
2022/03/12 12:35:38;;;;;;;;;;;14.60;94.20;;;;;;5101059;28;19931;-61
2022/03/12 12:38:08;;;;;;;;;;;14.40;94.10;;;;;;5095587;28;19923;-60
2022/03/12 12:40:37;;;;;;;;;;;14.30;96.00;;;;;;5064484;28;19924;-61
2022/03/12 12:43:09;;;;;;;;;;;14.30;96.20;;;;;;5104607;28;19924;-61
2022/03/12 12:45:56;;;;;;;;;;;14.10;96.40;;;;;;5098877;28;19977;-60
2022/03/12 12:48:30;;;;;;;;;;;14.00;97.10;;;;;;5075660;28;20410;-60
2022/03/12 12:51:11;;;;;;;;;;;13.90;97.20;;;;;;5095464;28;20386;-60
2022/03/12 12:53:39;;;;;;;;;;;13.90;97.40;;;;;;5107137;28;19976;-60
2022/03/12 12:56:14;;;;;;;;;;;14.10;98.10;;;;;;5116593;28;19931;-61
2022/03/12 12:58:47;;;;;;;;;;;14.40;98.10;;;;;;5106725;28;19978;-61
2022/03/12 13:01:16;;;;;;;;;;;14.60;96.70;;;;;;5103708;28;19931;-61
2022/03/12 13:03:47;;;;;;;;;;;14.50;95.70;;;;;;5080562;28;20024;-61
2022/03/12 13:06:32;;;;;;;;;;;14.40;96.30;;;;;;5103654;28;19926;-60
2022/03/12 13:09:01;;;;;;;;;;;14.30;97.60;;;;;;5102769;28;19947;-61
2022/03/12 13:11:28;;;;;;;;;;;14.30;97.50;;;;;;5103397;28;19931;-60
2022/03/12 13:13:54;;;;;;;;;;;14.30;97.60;;;;;;5104714;28;19924;-61
2022/03/12 13:16:20;;;;;;;;;;;14.50;97.50;;;;;;5105871;28;19927;-61
2022/03/12 13:18:46;;;;;;;;;;;14.10;97.50;;;;;;5085047;28;20274;-61
2022/03/12 13:21:26;;;;;;;;;;;14.10;97.80;;;;;;5106125;28;19924;-61
2022/03/12 13:23:51;;;;;;;;;;;14.20;97.90;;;;;;5100219;28;19994;-60
2022/03/12 13:26:17;;;;;;;;;;;14.30;99.00;;;;;;5102210;28;20439;-61
2022/03/12 13:28:45;;;;;;;;;;;14.40;98.40;;;;;;5077518;28;20034;-61
2022/03/12 13:31:30;;;;;;;;;;;14.50;98.20;;;;;;5101730;28;19985;-61
2022/03/12 13:33:58;;;;;;;;;;;14.30;98.00;;;;;;5075754;28;20394;-61
2022/03/12 13:36:26;;;;;;;;;;;14.30;98.40;;;;;;5057827;28;20274;-61
2022/03/12 13:38:52;;;;;;;;;;;14.30;99.00;;;;;;5113890;28;20455;-61
2022/03/12 13:41:18;;;;;;;;;;;14.20;98.30;;;;;;5116475;28;19955;-61
2022/03/12 13:43:45;;;;;;;;;;;14.20;98.60;;;;;;5097634;28;20297;-61
2022/03/12 13:46:12;;;;;;;;;;;14.20;99.50;;;;;;5106869;28;20316;-61
2022/03/12 13:48:39;;;;;;;;;;;14.20;98.90;;;;;;5102027;28;19943;-61
2022/03/12 13:51:06;;;;;;;;;;;14.10;99.40;;;;;;5104495;28;20328;-61
2022/03/12 13:53:32;;;;;;;;;;;14.10;99.30;;;;;;5096439;28;19931;-61
2022/03/12 13:56:04;;;;;;;;;;;14.30;99.40;;;;;;5091671;28;19923;-61
2022/03/12 13:58:30;;;;;;;;;;;14.40;99.20;;;;;;5115955;28;20370;-61
2022/03/12 14:00:59;;;;;;;;;;;14.70;98.70;;;;;;5114404;28;19934;-62
2022/03/12 14:03:28;;;;;;;;;;;14.90;97.50;;;;;;5111578;28;19953;-62
2022/03/12 14:05:54;;;;;;;;;;;15.10;96.50;;;;;;5095434;28;20393;-62
2022/03/12 14:08:21;;;;;;;;;;;15.20;95.60;;;;;;5094022;28;19974;-62
2022/03/12 14:10:47;;;;;;;;;;;15.20;95.50;;;;;;5094888;28;19935;-61
2022/03/12 14:13:14;;;;;;;;;;;15.20;96.30;;;;;;5087870;28;19924;-62
2022/03/12 14:15:40;;;;;;;;;;;15.30;95.90;;;;;;5111967;28;19931;-62
2022/03/12 14:18:06;;;;;;;;;;;15.50;95.60;;;;;;5076399;28;20378;-61
2022/03/12 14:20:43;;;;;;;;;;;15.70;94.80;;;;;;5094215;28;20290;-62
2022/03/12 14:23:09;;;;;;;;;;;15.40;93.30;;;;;;5108399;28;20002;-62
2022/03/12 14:25:35;;;;;;;;;;;15.20;93.10;;;;;;5101036;28;19966;-61